createdAt,value
2023-04-14T00:00:10.384Z,48.95
2023-04-14T00:02:38.844Z,48.93
2023-04-14T00:05:09.240Z,48.99
2023-04-14T00:07:39.011Z,49.08
2023-04-14T00:10:08.461Z,49.03
2023-04-14T00:12:36.808Z,49.26
2023-04-14T00:15:05.984Z,49.22
2023-04-14T00:17:34.342Z,49.24
2023-04-14T00:20:04.115Z,49.43
2023-04-14T00:22:32.511Z,49.27
2023-04-14T00:25:02.623Z,49.58
2023-04-14T00:27:31.258Z,49.40
2023-04-14T00:29:59.609Z,49.60
2023-04-14T00:32:27.946Z,49.43
2023-04-14T00:34:57.062Z,49.76
2023-04-14T00:37:25.564Z,49.64
2023-04-14T00:39:53.916Z,49.67
2023-04-14T00:42:23.774Z,49.81
2023-04-14T00:44:52.226Z,49.75
2023-04-14T00:47:22.864Z,49.65
2023-04-14T00:49:52.116Z,49.72
2023-04-14T00:52:23.588Z,49.88
2023-04-14T00:54:52.113Z,49.93
2023-04-14T00:57:20.558Z,50.00
2023-04-14T00:59:50.433Z,50.00
2023-04-14T01:02:21.457Z,49.94
2023-04-14T01:04:54.337Z,49.85
2023-04-14T01:07:24.987Z,49.96
2023-04-14T01:09:54.379Z,49.99
2023-04-14T01:12:51.029Z,50.14
2023-04-14T01:15:31.514Z,49.92
2023-04-14T01:18:12.058Z,50.08
2023-04-14T01:20:45.552Z,50.23
2023-04-14T01:23:24.117Z,50.36
2023-04-14T01:26:18.574Z,50.11
2023-04-14T01:29:36.208Z,50.20
2023-04-14T01:32:10.541Z,50.34
2023-04-14T01:34:45.993Z,50.22
2023-04-14T01:37:17.976Z,50.46
2023-04-14T01:39:53.013Z,50.39
2023-04-14T01:42:26.654Z,50.69
2023-04-14T01:44:59.992Z,50.65
2023-04-14T01:47:30.832Z,50.60
2023-04-14T01:50:00.769Z,50.64
2023-04-14T01:52:35.800Z,50.72
2023-04-14T01:55:06.734Z,50.85
2023-04-14T01:57:37.372Z,50.89
2023-04-14T02:00:07.789Z,50.89
2023-04-14T02:02:39.086Z,51.02
2023-04-14T02:05:10.222Z,50.89
2023-04-14T02:07:40.498Z,50.87
2023-04-14T02:10:16.267Z,50.96
2023-04-14T02:12:45.605Z,50.93
2023-04-14T02:15:17.912Z,51.17
2023-04-14T02:17:50.979Z,51.12
2023-04-14T02:20:22.496Z,51.23
2023-04-14T02:22:50.864Z,51.44
2023-04-14T02:25:19.339Z,51.20
2023-04-14T02:27:56.509Z,51.22
2023-04-14T02:30:30.962Z,51.37
2023-04-14T02:33:05.806Z,51.31
2023-04-14T02:35:40.683Z,51.56
2023-04-14T02:38:15.512Z,51.45
2023-04-14T02:40:45.249Z,51.61
2023-04-14T02:43:17.507Z,51.33
2023-04-14T02:45:50.778Z,51.23
2023-04-14T02:48:22.991Z,51.46
2023-04-14T02:50:57.900Z,51.32
2023-04-14T02:53:27.764Z,51.48
2023-04-14T02:55:56.298Z,51.64
2023-04-14T02:58:24.704Z,51.46
2023-04-14T03:00:54.135Z,51.66
2023-04-14T03:03:26.615Z,51.67
2023-04-14T03:05:55.397Z,51.71
2023-04-14T03:08:25.305Z,51.85
2023-04-14T03:10:55.704Z,51.88
2023-04-14T03:13:26.670Z,51.85
2023-04-14T03:15:57.687Z,51.98
2023-04-14T03:18:29.610Z,52.03
2023-04-14T03:21:05.833Z,51.94
2023-04-14T03:23:36.146Z,51.98
2023-04-14T03:26:04.989Z,52.11
2023-04-14T03:28:37.957Z,52.07
2023-04-14T03:31:09.434Z,52.20
2023-04-14T03:33:40.691Z,52.30
2023-04-14T03:36:10.095Z,52.27
2023-04-14T03:38:39.040Z,52.29
2023-04-14T03:41:09.682Z,52.30
2023-04-14T03:43:38.836Z,52.35
2023-04-14T03:46:07.769Z,52.33
2023-04-14T03:48:42.805Z,52.38
2023-04-14T03:51:14.519Z,52.44
2023-04-14T03:53:45.708Z,52.55
2023-04-14T03:56:15.365Z,52.68
2023-04-14T03:58:47.271Z,52.55
2023-04-14T04:01:16.671Z,52.52
2023-04-14T04:03:47.099Z,52.56
2023-04-14T04:06:16.010Z,52.41
2023-04-14T04:08:45.927Z,52.61
2023-04-14T04:11:18.819Z,52.62
2023-04-14T04:13:49.828Z,52.37
2023-04-14T04:16:18.655Z,52.58
2023-04-14T04:18:50.015Z,52.55
2023-04-14T04:21:19.830Z,52.44
2023-04-14T04:23:55.996Z,52.44
2023-04-14T04:26:25.825Z,52.48
2023-04-14T04:28:57.025Z,52.38
2023-04-14T04:31:26.315Z,52.35
2023-04-14T04:34:00.238Z,52.26
2023-04-14T04:36:29.959Z,52.44
2023-04-14T04:38:58.768Z,52.30
2023-04-14T04:41:29.937Z,52.39
2023-04-14T04:44:01.641Z,52.30
2023-04-14T04:46:54.800Z,52.42
2023-04-14T04:49:24.826Z,52.79
2023-04-14T04:51:53.307Z,52.46
2023-04-14T04:54:21.839Z,52.52
2023-04-14T04:56:50.186Z,52.36
2023-04-14T04:59:18.477Z,52.53
2023-04-14T05:01:46.887Z,52.60
2023-04-14T05:04:15.693Z,52.61
2023-04-14T05:06:45.747Z,52.66
2023-04-14T05:09:14.108Z,52.82
2023-04-14T05:11:42.586Z,52.85
2023-04-14T05:14:10.900Z,52.78
2023-04-14T05:16:39.234Z,52.72
2023-04-14T05:19:07.770Z,52.79
2023-04-14T05:21:36.330Z,52.90
2023-04-14T05:24:08.403Z,52.98
2023-04-14T05:26:57.819Z,52.81
2023-04-14T05:29:25.033Z,52.85
2023-04-14T05:31:53.369Z,52.81
2023-04-14T05:34:24.658Z,52.74
2023-04-14T05:36:53.029Z,52.78
2023-04-14T05:39:22.719Z,52.86
2023-04-14T05:41:51.303Z,52.91
2023-04-14T05:44:19.665Z,53.04
2023-04-14T05:46:48.273Z,52.97
2023-04-14T05:49:17.105Z,52.92
2023-04-14T05:51:45.531Z,52.92
2023-04-14T05:54:13.828Z,52.88
2023-04-14T05:56:43.514Z,53.07
2023-04-14T05:59:11.833Z,53.12
2023-04-14T06:01:40.157Z,53.23
2023-04-14T06:04:08.920Z,53.27
2023-04-14T06:06:37.775Z,53.33
2023-04-14T06:09:06.058Z,53.36
2023-04-14T06:11:34.319Z,53.11
2023-04-14T06:14:05.454Z,53.39
2023-04-14T06:16:33.763Z,53.44
2023-04-14T06:19:02.304Z,53.43
2023-04-14T06:21:31.520Z,53.42
2023-04-14T06:23:59.943Z,53.62
2023-04-14T06:26:28.260Z,53.69
2023-04-14T06:28:57.495Z,53.70
2023-04-14T06:31:27.203Z,53.60
2023-04-14T06:33:55.472Z,53.75
2023-04-14T06:36:23.825Z,53.74
2023-04-14T06:38:52.151Z,53.76
2023-04-14T06:41:20.449Z,53.86
2023-04-14T06:43:48.735Z,53.94
2023-04-14T06:46:17.447Z,53.87
2023-04-14T06:48:47.186Z,54.13
2023-04-14T06:51:15.951Z,54.19
2023-04-14T06:53:44.241Z,53.91
2023-04-14T06:56:12.680Z,54.13
2023-04-14T06:58:41.227Z,54.09
2023-04-14T07:01:09.565Z,54.22
2023-04-14T07:03:38.166Z,54.32
2023-04-14T07:06:11.568Z,54.41
2023-04-14T07:08:40.704Z,54.47
2023-04-14T07:11:11.317Z,54.50
2023-04-14T07:13:40.797Z,54.44
2023-04-14T07:16:09.835Z,54.54
2023-04-14T07:18:38.166Z,54.51
2023-04-14T07:21:08.079Z,54.59
2023-04-14T07:23:39.845Z,54.66
2023-04-14T07:26:08.469Z,54.70
2023-04-14T07:28:37.204Z,54.73
2023-04-14T07:31:10.386Z,54.70
2023-04-14T07:33:39.823Z,54.71
2023-04-14T07:36:10.320Z,54.68
2023-04-14T07:38:38.686Z,54.72
2023-04-14T07:41:08.476Z,54.71
2023-04-14T07:43:37.037Z,54.65
2023-04-14T07:46:06.791Z,54.63
2023-04-14T07:48:36.825Z,54.77
2023-04-14T07:51:05.999Z,54.63
2023-04-14T07:53:40.610Z,54.93
2023-04-14T07:56:09.216Z,54.60
2023-04-14T07:58:37.626Z,54.79
2023-04-14T08:01:06.410Z,54.82
2023-04-14T08:03:36.568Z,54.82
2023-04-14T08:06:09.804Z,54.83
2023-04-14T08:08:40.046Z,54.90
2023-04-14T08:11:08.404Z,54.76
2023-04-14T08:13:36.793Z,54.76
2023-04-14T08:16:05.982Z,54.98
2023-04-14T08:18:34.341Z,54.90
2023-04-14T08:21:02.681Z,54.71
2023-04-14T08:23:31.035Z,54.83
2023-04-14T08:26:00.814Z,54.76
2023-04-14T08:28:29.797Z,54.71
2023-04-14T08:30:58.126Z,54.95
2023-04-14T08:33:38.103Z,55.03
2023-04-14T08:36:07.487Z,55.07
2023-04-14T08:38:35.798Z,55.06
2023-04-14T08:41:09.531Z,55.15
2023-04-14T08:43:37.854Z,55.26
2023-04-14T08:46:07.323Z,55.51
2023-04-14T08:48:39.655Z,55.40
2023-04-14T08:51:19.932Z,55.49
2023-04-14T08:53:51.510Z,55.48
2023-04-14T08:56:24.102Z,55.53
2023-04-14T08:58:53.369Z,55.57
2023-04-14T09:01:22.262Z,55.43
2023-04-14T09:03:51.717Z,55.61
2023-04-14T09:06:20.403Z,55.51
2023-04-14T09:08:48.845Z,55.43
2023-04-14T09:11:17.644Z,55.48
2023-04-14T09:13:47.635Z,55.30
2023-04-14T09:16:17.455Z,55.22
2023-04-14T09:18:47.218Z,55.34
2023-04-14T09:21:50.342Z,55.62
2023-04-14T09:24:07.483Z,55.26
2023-04-14T09:26:36.035Z,55.35
2023-04-14T09:29:05.926Z,55.26
2023-04-14T09:31:34.522Z,55.24
2023-04-14T09:34:03.114Z,55.29
2023-04-14T09:36:32.017Z,55.17
2023-04-14T09:39:17.476Z,55.03
2023-04-14T09:41:49.186Z,55.00
2023-04-14T09:44:19.125Z,55.00
2023-04-14T09:46:58.984Z,54.98
2023-04-14T09:49:27.875Z,54.78
2023-04-14T09:51:57.806Z,55.11
2023-04-14T09:54:27.443Z,55.20
2023-04-14T09:56:55.897Z,55.31
2023-04-14T09:59:37.081Z,55.18
2023-04-14T10:02:09.546Z,55.19
2023-04-14T10:04:38.980Z,55.17
2023-04-14T10:07:09.068Z,55.19
2023-04-14T10:09:38.838Z,55.14
2023-04-14T10:12:12.375Z,55.32
2023-04-14T10:14:43.136Z,55.52
2023-04-14T10:17:13.616Z,55.27
2023-04-14T10:19:42.152Z,55.40
2023-04-14T10:22:11.028Z,55.51
2023-04-14T10:24:39.847Z,55.67
2023-04-14T10:27:08.375Z,55.52
2023-04-14T10:29:36.774Z,55.79
2023-04-14T10:32:10.534Z,55.51
2023-04-14T10:34:42.484Z,55.26
2023-04-14T10:37:15.212Z,55.23
2023-04-14T10:39:44.141Z,55.22
2023-04-14T10:42:12.528Z,55.26
2023-04-14T10:44:40.871Z,54.97
2023-04-14T10:47:10.862Z,55.30
2023-04-14T10:49:41.490Z,55.24
2023-04-14T10:52:33.211Z,55.19
2023-04-14T10:55:08.868Z,55.18
2023-04-14T10:57:43.854Z,55.28
2023-04-14T11:00:29.070Z,55.25
2023-04-14T11:03:02.950Z,55.25
2023-04-14T11:05:34.992Z,55.36
2023-04-14T11:08:13.892Z,55.15
2023-04-14T11:10:44.649Z,55.19
2023-04-14T11:13:16.069Z,55.07
2023-04-14T11:15:51.441Z,55.20
2023-04-14T11:18:35.751Z,55.28
2023-04-14T11:21:06.359Z,55.63
2023-04-14T11:23:35.961Z,55.58
2023-04-14T11:26:08.267Z,55.79
2023-04-14T11:28:38.212Z,55.64
2023-04-14T11:31:08.875Z,55.72
2023-04-14T11:33:41.516Z,55.67
2023-04-14T11:36:12.839Z,55.85
2023-04-14T11:38:41.405Z,55.77
2023-04-14T11:41:10.155Z,55.89
2023-04-14T11:43:39.212Z,55.90
2023-04-14T11:46:09.016Z,56.21
2023-04-14T11:48:39.821Z,55.93
2023-04-14T11:51:08.177Z,55.97
2023-04-14T11:53:40.435Z,55.94
2023-04-14T11:56:09.328Z,55.83
2023-04-14T11:58:37.677Z,56.07
2023-04-14T12:01:06.376Z,56.13
2023-04-14T12:03:39.480Z,56.20
2023-04-14T12:06:08.175Z,56.04
2023-04-14T12:08:37.626Z,55.93
2023-04-14T12:11:15.850Z,55.82
2023-04-14T12:13:45.080Z,55.62
2023-04-14T12:16:14.941Z,55.28
2023-04-14T12:18:45.392Z,55.50
2023-04-14T12:21:19.656Z,55.25
2023-04-14T12:23:49.898Z,55.44
2023-04-14T12:26:19.593Z,55.43
2023-04-14T12:28:56.597Z,55.23
2023-04-14T12:31:30.468Z,55.56
2023-04-14T12:34:05.695Z,55.69
2023-04-14T12:36:48.700Z,55.71
2023-04-14T12:39:18.245Z,55.52
2023-04-14T12:41:46.905Z,55.41
2023-04-14T12:44:17.639Z,55.32
2023-04-14T12:46:54.674Z,55.20
2023-04-14T12:49:37.427Z,54.94
2023-04-14T12:52:08.307Z,54.84
2023-04-14T12:54:51.955Z,54.66
2023-04-14T12:57:22.074Z,54.65
2023-04-14T12:59:50.852Z,54.48
2023-04-14T13:02:19.489Z,54.62
2023-04-14T13:04:49.512Z,54.08
2023-04-14T13:07:18.793Z,54.01
2023-04-14T13:09:47.173Z,53.91
2023-04-14T13:12:15.591Z,54.18
2023-04-14T13:14:43.886Z,54.20
2023-04-14T13:17:12.955Z,54.11
2023-04-14T13:19:41.447Z,53.93
2023-04-14T13:22:11.454Z,53.85
2023-04-14T13:24:39.747Z,53.77
2023-04-14T13:27:08.133Z,53.91
2023-04-14T13:29:36.702Z,54.09
2023-04-14T13:32:09.678Z,54.01
2023-04-14T13:34:38.278Z,53.65
2023-04-14T13:37:07.298Z,53.08
2023-04-14T13:39:36.996Z,52.90
2023-04-14T13:42:05.929Z,52.90
2023-04-14T13:44:35.306Z,52.60
2023-04-14T13:47:03.643Z,52.65
2023-04-14T13:49:32.145Z,51.82
2023-04-14T13:52:00.505Z,51.65
2023-04-14T13:54:28.865Z,51.56
2023-04-14T13:56:58.535Z,51.76
2023-04-14T13:59:27.123Z,51.75
2023-04-14T14:01:55.611Z,51.69
2023-04-14T14:04:24.138Z,51.75
2023-04-14T14:06:52.595Z,51.89
2023-04-14T14:09:21.176Z,52.23
2023-04-14T14:11:49.456Z,52.40
2023-04-14T14:14:19.072Z,52.66
2023-04-14T14:16:47.455Z,52.83
2023-04-14T14:19:17.194Z,53.15
2023-04-14T14:21:45.660Z,53.33
2023-04-14T14:24:14.215Z,53.40
2023-04-14T14:26:42.536Z,53.57
2023-04-14T14:29:11.033Z,53.81
2023-04-14T14:31:40.916Z,53.94
2023-04-14T14:34:09.584Z,53.55
2023-04-14T14:36:37.920Z,53.78
2023-04-14T14:39:09.522Z,53.89
2023-04-14T14:41:37.794Z,53.90
2023-04-14T14:44:06.545Z,53.69
2023-04-14T14:46:35.494Z,53.54
2023-04-14T14:49:10.564Z,53.60
2023-04-14T14:51:38.835Z,53.46
2023-04-14T14:54:10.299Z,53.58
2023-04-14T14:56:39.004Z,53.47
2023-04-14T14:59:10.433Z,53.68
2023-04-14T15:01:38.806Z,53.76
2023-04-14T15:04:08.663Z,53.78
2023-04-14T15:06:37.545Z,53.66
2023-04-14T15:09:06.593Z,53.38
2023-04-14T15:11:34.948Z,53.45
2023-04-14T15:14:03.488Z,53.29
2023-04-14T15:16:32.134Z,53.10
2023-04-14T15:19:00.507Z,52.96
2023-04-14T15:21:32.022Z,53.06
2023-04-14T15:24:00.606Z,52.67
2023-04-14T15:26:29.208Z,52.66
2023-04-14T15:29:00.192Z,52.72
2023-04-14T15:31:28.521Z,52.83
2023-04-14T15:33:59.898Z,53.14
2023-04-14T15:36:31.543Z,53.00
2023-04-14T15:39:02.787Z,52.97
2023-04-14T15:41:31.061Z,53.10
2023-04-14T15:43:59.691Z,52.95
2023-04-14T15:46:28.322Z,52.79
2023-04-14T15:48:56.720Z,52.81
2023-04-14T15:51:25.018Z,52.91
2023-04-14T15:53:54.696Z,52.73
2023-04-14T15:56:23.751Z,52.60
2023-04-14T15:58:54.931Z,52.85
2023-04-14T16:01:23.283Z,52.95
2023-04-14T16:03:52.835Z,52.67
2023-04-14T16:06:21.454Z,52.75
2023-04-14T16:08:49.853Z,52.69
2023-04-14T16:11:19.921Z,52.71
2023-04-14T16:13:48.911Z,52.57
2023-04-14T16:16:18.020Z,52.76
2023-04-14T16:18:46.428Z,52.86
2023-04-14T16:21:14.914Z,53.06
2023-04-14T16:23:43.483Z,53.17
2023-04-14T16:26:12.838Z,53.02
2023-04-14T16:28:42.584Z,53.02
2023-04-14T16:31:10.939Z,53.01
2023-04-14T16:33:39.352Z,53.12
2023-04-14T16:36:17.426Z,53.02
2023-04-14T16:38:46.128Z,53.04
2023-04-14T16:41:14.491Z,52.92
2023-04-14T16:43:44.728Z,52.91
2023-04-14T16:46:13.096Z,52.98
2023-04-14T16:48:45.165Z,52.72
2023-04-14T16:51:13.563Z,52.73
2023-04-14T16:53:44.169Z,52.86
2023-04-14T16:56:13.181Z,52.76
2023-04-14T16:58:43.373Z,52.78
2023-04-14T17:01:27.319Z,52.60
2023-04-14T17:03:55.904Z,52.70
2023-04-14T17:06:24.480Z,52.78
2023-04-14T17:08:53.043Z,52.82
2023-04-14T17:11:21.652Z,52.72
2023-04-14T17:13:53.041Z,52.57
2023-04-14T17:16:21.440Z,52.69
2023-04-14T17:18:51.805Z,52.94
2023-04-14T17:21:20.476Z,52.93
2023-04-14T17:23:48.875Z,52.75
2023-04-14T17:26:17.524Z,52.80
2023-04-14T17:28:46.176Z,53.01
2023-04-14T17:31:17.189Z,52.86
2023-04-14T17:33:47.051Z,52.91
2023-04-14T17:36:17.530Z,52.83
2023-04-14T17:38:46.152Z,52.86
2023-04-14T17:41:14.898Z,52.79
2023-04-14T17:43:43.761Z,52.64
2023-04-14T17:46:12.736Z,52.53
2023-04-14T17:48:46.982Z,52.62
2023-04-14T17:51:15.442Z,52.61
2023-04-14T17:53:45.092Z,52.51
2023-04-14T17:56:14.863Z,52.65
2023-04-14T17:58:43.237Z,52.68
2023-04-14T18:01:11.920Z,52.74
2023-04-14T18:03:42.102Z,52.75
2023-04-14T18:06:11.031Z,52.75
2023-04-14T18:08:39.605Z,52.76
2023-04-14T18:11:09.936Z,52.71
2023-04-14T18:13:40.981Z,52.52
2023-04-14T18:16:10.615Z,52.75
2023-04-14T18:18:39.482Z,52.79
2023-04-14T18:21:09.856Z,52.69
2023-04-14T18:23:38.430Z,52.73
2023-04-14T18:28:39.444Z,52.70
2023-04-14T18:31:07.824Z,52.79
2023-04-14T18:33:36.203Z,52.68
2023-04-14T18:36:05.312Z,52.78
2023-04-14T18:38:38.204Z,52.83
2023-04-14T18:41:07.284Z,52.78
2023-04-14T18:43:35.657Z,52.84
2023-04-14T18:46:04.197Z,52.89
2023-04-14T18:48:35.956Z,52.90
2023-04-14T18:51:08.070Z,52.92
2023-04-14T18:53:39.640Z,53.01
2023-04-14T18:56:08.862Z,53.15
2023-04-14T18:58:46.204Z,53.06
2023-04-14T19:01:14.563Z,53.19
2023-04-14T19:03:42.948Z,53.28
2023-04-14T19:06:13.861Z,53.30
2023-04-14T19:08:43.501Z,53.40
2023-04-14T19:11:12.168Z,53.45
2023-04-14T19:13:46.709Z,53.47
2023-04-14T19:16:15.032Z,53.49
2023-04-14T19:18:43.430Z,53.52
2023-04-14T19:21:12.422Z,53.62
2023-04-14T19:23:42.381Z,53.85
2023-04-14T19:26:11.559Z,53.71
2023-04-14T19:28:42.368Z,53.81
2023-04-14T19:31:11.004Z,53.73
2023-04-14T19:33:41.754Z,53.60
2023-04-14T19:36:17.599Z,53.72
2023-04-14T19:38:47.275Z,53.72
2023-04-14T19:41:15.711Z,53.71
2023-04-14T19:43:44.076Z,53.83
2023-04-14T19:46:13.411Z,53.68
2023-04-14T19:48:49.451Z,53.80
2023-04-14T19:51:18.317Z,53.77
2023-04-14T19:53:48.304Z,53.96
2023-04-14T19:56:16.750Z,53.78
2023-04-14T19:58:45.099Z,53.88
2023-04-14T20:01:13.449Z,53.94
2023-04-14T20:04:04.700Z,53.96
2023-04-14T20:06:30.700Z,53.88
2023-04-14T20:09:02.037Z,54.04
2023-04-14T20:11:31.187Z,54.04
2023-04-14T20:14:03.054Z,54.22
2023-04-14T20:16:31.506Z,54.07
2023-04-14T20:19:03.614Z,54.04
2023-04-14T20:21:32.872Z,54.01
2023-04-14T20:24:03.167Z,54.06
2023-04-14T20:26:31.459Z,54.02
2023-04-14T20:28:59.982Z,54.06
2023-04-14T20:31:29.111Z,54.03
2023-04-14T20:33:58.075Z,54.04
2023-04-14T20:36:27.080Z,53.99
2023-04-14T20:38:55.388Z,54.07
2023-04-14T20:41:26.995Z,54.16
2023-04-14T20:43:57.594Z,54.13
2023-04-14T20:46:26.088Z,54.17
2023-04-14T20:48:57.162Z,54.27
2023-04-14T20:51:25.583Z,54.24
2023-04-14T20:53:53.962Z,54.23
2023-04-14T20:56:22.569Z,54.02
2023-04-14T20:58:59.273Z,54.09
2023-04-14T21:01:28.097Z,54.13
2023-04-14T21:03:57.179Z,54.01
2023-04-14T21:06:25.935Z,53.98
2023-04-14T21:08:57.072Z,54.19
2023-04-14T21:11:25.424Z,54.31
2023-04-14T21:15:39.788Z,54.30
2023-04-14T21:16:43.570Z,54.42
2023-04-14T21:19:13.424Z,54.46
2023-04-14T21:21:42.071Z,54.48
2023-04-14T21:24:10.452Z,54.40
2023-04-14T21:26:38.848Z,54.53
2023-04-14T21:29:08.402Z,54.54
2023-04-14T21:31:36.723Z,54.61
2023-04-14T21:34:06.975Z,54.62
2023-04-14T21:36:42.110Z,54.46
2023-04-14T21:39:10.559Z,54.29
2023-04-14T21:41:38.936Z,54.50
2023-04-14T21:44:07.547Z,54.26
2023-04-14T21:46:36.800Z,54.06
2023-04-14T21:49:06.773Z,54.33
2023-04-14T21:51:35.348Z,54.41
2023-04-14T21:54:03.728Z,54.50
2023-04-14T21:56:32.837Z,54.33
2023-04-14T21:59:04.232Z,54.40
2023-04-14T22:01:33.117Z,54.40
2023-04-14T22:04:02.792Z,54.46
2023-04-14T22:06:35.378Z,54.59
2023-04-14T22:09:04.115Z,54.47
2023-04-14T22:11:35.414Z,54.64
2023-04-14T22:14:06.905Z,54.68
2023-04-14T22:16:36.195Z,54.75
2023-04-14T22:19:04.750Z,54.76
2023-04-14T22:21:34.961Z,54.61
2023-04-14T22:24:03.302Z,54.66
2023-04-14T22:26:32.882Z,54.72
2023-04-14T22:29:01.428Z,54.69
2023-04-14T22:31:31.155Z,54.74
2023-04-14T22:33:59.558Z,54.86
2023-04-14T22:36:27.861Z,54.76
2023-04-14T22:38:57.600Z,54.61
2023-04-14T22:41:26.306Z,54.67
2023-04-14T22:44:00.392Z,54.69
2023-04-14T22:46:28.770Z,54.64
2023-04-14T22:48:57.604Z,54.66
2023-04-14T22:51:26.043Z,54.64
2023-04-14T22:53:58.459Z,54.55
2023-04-14T22:56:27.560Z,54.66
2023-04-14T22:58:57.902Z,54.59
2023-04-14T23:01:27.949Z,54.80
2023-04-14T23:03:56.413Z,54.63
2023-04-14T23:06:25.281Z,54.70
2023-04-14T23:08:53.669Z,54.65
2023-04-14T23:11:23.587Z,54.76
2023-04-14T23:13:54.869Z,54.76
2023-04-14T23:16:26.282Z,54.80
2023-04-14T23:18:54.791Z,54.62
2023-04-14T23:21:23.217Z,54.70
2023-04-14T23:23:54.374Z,54.54
2023-04-14T23:26:24.157Z,54.66
2023-04-14T23:28:53.070Z,54.65
2023-04-14T23:31:21.918Z,54.80
2023-04-14T23:33:52.760Z,54.65
2023-04-14T23:36:21.777Z,54.51
2023-04-14T23:38:50.141Z,54.65
2023-04-14T23:41:19.598Z,54.71
2023-04-14T23:43:50.563Z,54.67
2023-04-14T23:46:18.912Z,54.69
2023-04-14T23:48:47.481Z,54.64
2023-04-14T23:51:18.314Z,54.57
2023-04-14T23:53:49.216Z,54.64
2023-04-14T23:56:17.735Z,54.67
2023-04-14T23:58:46.153Z,54.63
